Google Maps JavaScript API Example
Pilot Flight Report # 90599 Submitted by : AST195 on 2018-02-11
Date: 2018-02-11Aircraft: Boeing 747-400
Flight No.: AST1861Distance (Nm): 3313.26
Departure: PHNL - Honolulu InternationalDestination: RJAA - New Tokyo Intl (Narita)
 TimeFuelWeightSpeeds  
Out (Taxi)2140 Flight RulesIFR
Off (Takeoff)2140 Flight Level
On (Landing)0545 VSTD
In (Ramp)0545 ZFW
Flight8.08  -  8:057600  Pax0
Block8.08  -  8:057600  Cargo0
Departure WeatherPHNL 111553Z 34004KT 10SM SCT024 20/16 A2988 RMK AO2 SLP117 T02000161 $
Destination WeatherRJAA 111530Z 30006KT 270V330 9999 FEW030 BKN070 03/M10 Q1007 NOSIG RMK 1CU030 6AC070 A2976
Flight CommentsN/A